createdAt,value
2018-01-02T00:00:31.034Z,-62
2018-01-02T00:01:31.082Z,-66
2018-01-02T00:02:30.863Z,-66
2018-01-02T00:03:30.625Z,-67
2018-01-02T00:04:31.551Z,-65
2018-01-02T00:05:31.516Z,-62
2018-01-02T00:06:31.447Z,-62
2018-01-02T00:07:31.419Z,-67
2018-01-02T00:08:31.386Z,-67
2018-01-02T00:09:31.338Z,-63
2018-01-02T00:10:31.462Z,-62
2018-01-02T00:11:31.594Z,-66
2018-01-02T00:12:31.481Z,-66
2018-01-02T00:13:31.628Z,-62
2018-01-02T00:14:31.512Z,-63
2018-01-02T00:15:31.430Z,-62
2018-01-02T00:16:31.419Z,-66
2018-01-02T00:17:31.653Z,-70
2018-01-02T00:18:31.366Z,-67
2018-01-02T00:19:31.112Z,-63
2018-01-02T00:20:31.165Z,-63
2018-01-02T00:21:31.414Z,-63
2018-01-02T00:22:31.431Z,-67
2018-01-02T00:23:31.339Z,-68
2018-01-02T00:24:31.475Z,-64
2018-01-02T00:25:30.543Z,-64
2018-01-02T00:26:30.526Z,-64
2018-01-02T00:27:30.606Z,-69
2018-01-02T00:28:31.081Z,-63
2018-01-02T00:29:31.008Z,-63
2018-01-02T00:30:30.756Z,-67
2018-01-02T00:31:30.868Z,-62
2018-01-02T00:32:30.817Z,-67
2018-01-02T00:33:30.849Z,-63
2018-01-02T00:34:30.877Z,-66
2018-01-02T00:35:30.897Z,-65
2018-01-02T00:36:30.892Z,-62
2018-01-02T00:37:30.763Z,-68
2018-01-02T00:38:30.873Z,-62
2018-01-02T00:39:30.928Z,-62
2018-01-02T00:40:30.870Z,-62
2018-01-02T00:41:30.794Z,-62
2018-01-02T00:42:30.737Z,-67
2018-01-02T00:43:30.600Z,-66
2018-01-02T00:44:30.629Z,-66
2018-01-02T00:45:30.647Z,-62
2018-01-02T00:46:30.509Z,-62
2018-01-02T00:47:30.518Z,-63
2018-01-02T00:48:30.569Z,-62
2018-01-02T00:49:31.024Z,-66
2018-01-02T00:50:31.017Z,-63
2018-01-02T00:51:31.097Z,-66
2018-01-02T00:52:31.320Z,-63
2018-01-02T00:53:31.288Z,-67
2018-01-02T00:54:31.227Z,-63
2018-01-02T00:55:30.175Z,-67
2018-01-02T00:56:31.121Z,-66
2018-01-02T00:57:31.378Z,-67
2018-01-02T00:58:30.319Z,-63
2018-01-02T00:59:30.378Z,-62
2018-01-02T01:00:30.396Z,-62
2018-01-02T01:01:30.353Z,-67
2018-01-02T01:02:30.534Z,-63
2018-01-02T01:03:30.435Z,-63
2018-01-02T01:04:29.578Z,-62
2018-01-02T01:05:30.698Z,-62
2018-01-02T01:06:30.796Z,-66
2018-01-02T01:07:30.933Z,-62
2018-01-02T01:08:31.143Z,-65
2018-01-02T01:09:31.157Z,-62
2018-01-02T01:10:31.129Z,-66
2018-01-02T01:11:31.073Z,-62
2018-01-02T01:12:31.194Z,-62
2018-01-02T01:13:30.958Z,-65
2018-01-02T01:14:30.856Z,-62
2018-01-02T01:15:30.612Z,-62
2018-01-02T01:16:30.775Z,-63
2018-01-02T01:17:29.936Z,-66
2018-01-02T01:18:30.806Z,-67
2018-01-02T01:19:30.684Z,-63
2018-01-02T01:20:30.545Z,-63
2018-01-02T01:21:30.393Z,-62
2018-01-02T01:22:30.227Z,-67
2018-01-02T01:23:30.381Z,-63
2018-01-02T01:24:30.475Z,-62
2018-01-02T01:25:30.352Z,-63
2018-01-02T01:26:31.207Z,-66
2018-01-02T01:27:31.231Z,-63
2018-01-02T01:28:31.299Z,-63
2018-01-02T01:29:31.121Z,-66
2018-01-02T01:30:31.024Z,-63
2018-01-02T01:31:31.080Z,-62
2018-01-02T01:32:31.022Z,-68
2018-01-02T01:33:31.092Z,-66
2018-01-02T01:34:31.267Z,-66
2018-01-02T01:35:31.307Z,-63
2018-01-02T01:36:31.229Z,-62
2018-01-02T01:37:31.236Z,-62
2018-01-02T01:38:31.112Z,-67
2018-01-02T01:39:31.301Z,-66
2018-01-02T01:40:31.303Z,-67
2018-01-02T01:41:31.290Z,-63
2018-01-02T01:42:31.144Z,-63
2018-01-02T01:43:31.148Z,-63
2018-01-02T01:44:31.341Z,-63
2018-01-02T01:45:31.512Z,-63
2018-01-02T01:46:31.466Z,-67
2018-01-02T01:47:31.511Z,-68
2018-01-02T01:48:31.400Z,-67
2018-01-02T01:49:31.401Z,-67
2018-01-02T01:50:31.368Z,-66
2018-01-02T01:51:31.318Z,-68
2018-01-02T01:52:31.289Z,-64
2018-01-02T01:53:31.178Z,-65
2018-01-02T01:54:31.029Z,-61
2018-01-02T01:55:31.237Z,-70
2018-01-02T01:56:30.334Z,-62
2018-01-02T01:57:30.222Z,-63
2018-01-02T01:58:30.249Z,-63
2018-01-02T01:59:30.093Z,-66
2018-01-02T02:00:31.200Z,-68
2018-01-02T02:01:30.058Z,-66
2018-01-02T02:02:30.909Z,-62
2018-01-02T02:03:30.812Z,-66
2018-01-02T02:04:30.690Z,-68
2018-01-02T02:05:30.824Z,-62
2018-01-02T02:06:30.847Z,-62
2018-01-02T02:07:30.758Z,-66
2018-01-02T02:08:30.763Z,-68
2018-01-02T02:09:30.870Z,-68
2018-01-02T02:10:30.679Z,-66
2018-01-02T02:11:30.935Z,-62
2018-01-02T02:12:30.710Z,-62
2018-01-02T02:13:30.972Z,-62
2018-01-02T02:14:30.944Z,-66
2018-01-02T02:15:31.032Z,-63
2018-01-02T02:16:31.226Z,-67
2018-01-02T02:17:30.641Z,-62
2018-01-02T02:18:30.867Z,-67
2018-01-02T02:19:30.692Z,-68
2018-01-02T02:20:30.850Z,-65
2018-01-02T02:21:31.067Z,-67
2018-01-02T02:22:31.111Z,-68
2018-01-02T02:23:31.272Z,-63
2018-01-02T02:24:30.357Z,-64
2018-01-02T02:25:30.293Z,-66
2018-01-02T02:26:30.186Z,-67
2018-01-02T02:27:31.233Z,-64
2018-01-02T02:28:31.289Z,-63
2018-01-02T02:29:31.225Z,-64
2018-01-02T02:30:31.509Z,-63
2018-01-02T02:31:30.676Z,-63
2018-01-02T02:32:30.536Z,-63
2018-01-02T02:33:30.795Z,-64
2018-01-02T02:34:30.759Z,-61
2018-01-02T02:35:30.615Z,-62
2018-01-02T02:36:30.646Z,-62
2018-01-02T02:37:30.578Z,-66
2018-01-02T02:38:30.548Z,-67
2018-01-02T02:39:30.796Z,-62
2018-01-02T02:40:30.673Z,-62
2018-01-02T02:41:30.687Z,-66
2018-01-02T02:42:30.548Z,-61
2018-01-02T02:43:30.684Z,-68
2018-01-02T02:44:30.739Z,-62
2018-01-02T02:45:30.851Z,-62
2018-01-02T02:46:30.742Z,-67
2018-01-02T02:47:30.844Z,-62
2018-01-02T02:48:30.795Z,-62
2018-01-02T02:49:30.918Z,-62
2018-01-02T02:50:31.090Z,-62
2018-01-02T02:51:30.976Z,-62
2018-01-02T02:52:30.918Z,-62
2018-01-02T02:53:30.860Z,-62
2018-01-02T02:54:30.927Z,-68
2018-01-02T02:55:30.850Z,-66
2018-01-02T02:56:31.160Z,-66
2018-01-02T02:57:31.242Z,-62
2018-01-02T02:58:31.186Z,-66
2018-01-02T02:59:31.023Z,-62
2018-01-02T03:00:30.927Z,-62
2018-01-02T03:01:30.794Z,-65
2018-01-02T03:02:31.673Z,-62
2018-01-02T03:03:31.814Z,-65
2018-01-02T03:04:31.817Z,-62
2018-01-02T03:05:31.761Z,-62
2018-01-02T03:06:31.532Z,-62
2018-01-02T03:07:31.617Z,-65
2018-01-02T03:08:31.681Z,-66
2018-01-02T03:09:31.684Z,-61
2018-01-02T03:10:31.509Z,-63
2018-01-02T03:11:31.683Z,-63
2018-01-02T03:12:31.634Z,-62
2018-01-02T03:13:31.574Z,-64
2018-01-02T03:14:31.339Z,-62
2018-01-02T03:15:31.186Z,-63
2018-01-02T03:16:31.254Z,-66
2018-01-02T03:17:31.334Z,-67
2018-01-02T03:18:31.297Z,-67
2018-01-02T03:19:31.325Z,-65
2018-01-02T03:20:31.462Z,-67
2018-01-02T03:21:31.402Z,-67
2018-01-02T03:22:31.144Z,-63
2018-01-02T03:23:31.199Z,-68
2018-01-02T03:24:31.159Z,-63
2018-01-02T03:25:31.385Z,-67
2018-01-02T03:26:31.650Z,-67
2018-01-02T03:27:30.581Z,-66
2018-01-02T03:28:30.510Z,-62
2018-01-02T03:29:30.587Z,-62
2018-01-02T03:30:30.461Z,-63
2018-01-02T03:31:30.569Z,-63
2018-01-02T03:32:30.464Z,-66
2018-01-02T03:33:30.424Z,-63
2018-01-02T03:34:30.408Z,-62
2018-01-02T03:35:30.516Z,-66
2018-01-02T03:36:30.655Z,-63
2018-01-02T03:37:30.765Z,-66
2018-01-02T03:38:30.668Z,-65
2018-01-02T03:39:30.799Z,-62
2018-01-02T03:40:30.831Z,-66
2018-01-02T03:41:30.763Z,-65
2018-01-02T03:42:30.802Z,-62
2018-01-02T03:43:30.879Z,-65
2018-01-02T03:44:30.982Z,-62
2018-01-02T03:45:30.941Z,-64
2018-01-02T03:46:30.915Z,-66
2018-01-02T03:47:31.109Z,-63
2018-01-02T03:48:31.017Z,-67
2018-01-02T03:49:30.905Z,-67
2018-01-02T03:50:30.857Z,-68
2018-01-02T03:51:30.979Z,-63
2018-01-02T03:52:31.174Z,-67
2018-01-02T03:53:31.071Z,-64
2018-01-02T03:54:31.062Z,-66
2018-01-02T03:55:31.556Z,-63
2018-01-02T03:56:30.238Z,-67
2018-01-02T03:57:31.370Z,-67
2018-01-02T03:58:30.309Z,-67
2018-01-02T03:59:30.269Z,-67
2018-01-02T04:00:30.204Z,-67
2018-01-02T04:01:31.209Z,-63
2018-01-02T04:02:30.148Z,-67
2018-01-02T04:03:30.891Z,-63
2018-01-02T04:04:30.970Z,-67
2018-01-02T04:05:31.024Z,-67
2018-01-02T04:06:30.996Z,-68
2018-01-02T04:07:30.918Z,-63
2018-01-02T04:08:30.666Z,-63
2018-01-02T04:09:30.656Z,-66
2018-01-02T04:10:30.788Z,-64
2018-01-02T04:11:30.650Z,-67
2018-01-02T04:12:30.859Z,-63
2018-01-02T04:13:30.964Z,-64
2018-01-02T04:14:31.161Z,-66
2018-01-02T04:15:31.064Z,-63
2018-01-02T04:16:31.242Z,-65
2018-01-02T04:17:31.168Z,-66
2018-01-02T04:18:30.260Z,-66
2018-01-02T04:19:31.159Z,-62
2018-01-02T04:21:34.528Z,31
2018-01-02T04:22:31.568Z,31
2018-01-02T04:23:31.542Z,31
2018-01-02T04:24:31.368Z,31
2018-01-02T04:25:31.434Z,31
2018-01-02T04:26:31.603Z,31
2018-01-02T04:27:32.374Z,31
2018-01-02T04:28:31.439Z,31
2018-01-02T04:29:31.279Z,31
2018-01-02T04:30:33.115Z,31
2018-01-02T04:31:31.641Z,31
2018-01-02T04:32:31.727Z,31
2018-01-02T04:33:31.828Z,31
2018-01-02T04:34:31.378Z,31
2018-01-02T04:35:32.202Z,31
2018-01-02T04:36:32.541Z,31
2018-01-02T04:37:31.606Z,31
2018-01-02T04:38:31.488Z,31
2018-01-02T04:39:32.390Z,31
2018-01-02T04:40:32.194Z,31
2018-01-02T04:41:32.259Z,31
2018-01-02T04:42:32.344Z,31
2018-01-02T04:43:32.181Z,31
2018-01-02T04:44:32.590Z,31
2018-01-02T04:45:31.662Z,31
2018-01-02T04:46:31.682Z,31
2018-01-02T04:47:31.422Z,31
2018-01-02T04:48:31.930Z,31
2018-01-02T04:49:32.002Z,31
2018-01-02T04:50:31.672Z,31
2018-01-02T04:51:31.748Z,31
2018-01-02T04:52:31.898Z,31
2018-01-02T04:53:31.632Z,31
2018-01-02T04:54:32.274Z,31
2018-01-02T04:55:32.219Z,31
2018-01-02T04:56:32.338Z,31
2018-01-02T04:57:32.492Z,31
2018-01-02T04:58:31.729Z,31
2018-01-02T04:59:31.828Z,31
2018-01-02T05:00:32.550Z,31
2018-01-02T05:01:32.561Z,31
2018-01-02T05:02:32.159Z,31
2018-01-02T05:03:32.349Z,31
2018-01-02T05:04:32.469Z,31
2018-01-02T05:05:32.896Z,31
2018-01-02T05:06:32.053Z,31
2018-01-02T05:07:32.505Z,31
2018-01-02T05:08:32.374Z,31
2018-01-02T05:09:32.313Z,31
2018-01-02T05:10:32.473Z,31
2018-01-02T05:11:32.252Z,31
2018-01-02T05:12:32.414Z,31
2018-01-02T05:13:32.202Z,31
2018-01-02T05:14:33.051Z,31
2018-01-02T05:15:32.062Z,31
2018-01-02T05:16:31.892Z,31
2018-01-02T05:17:32.799Z,31
2018-01-02T05:18:31.981Z,31
2018-01-02T05:19:31.871Z,31
2018-01-02T05:20:31.860Z,31
2018-01-02T05:21:31.859Z,31
2018-01-02T05:22:31.960Z,31
2018-01-02T05:23:31.795Z,31
2018-01-02T05:24:31.945Z,31
2018-01-02T05:25:32.305Z,31
2018-01-02T05:26:31.959Z,31
2018-01-02T05:27:32.244Z,31
2018-01-02T05:28:32.501Z,31
2018-01-02T05:29:32.968Z,31
2018-01-02T05:30:31.918Z,31
2018-01-02T05:31:31.913Z,31
2018-01-02T05:32:32.375Z,31
2018-01-02T05:33:32.175Z,31
2018-01-02T05:34:32.935Z,31
2018-01-02T05:35:32.126Z,31
2018-01-02T05:36:32.794Z,31
2018-01-02T05:37:31.593Z,31
2018-01-02T05:38:32.394Z,31
2018-01-02T05:39:32.773Z,31
2018-01-02T05:40:31.724Z,31
2018-01-02T05:41:31.692Z,31
2018-01-02T05:42:31.759Z,31
2018-01-02T05:43:31.903Z,31
2018-01-02T05:44:32.431Z,31
2018-01-02T05:45:32.876Z,31
2018-01-02T05:46:32.575Z,31
2018-01-02T05:47:31.324Z,31
2018-01-02T05:48:32.186Z,31
2018-01-02T05:49:32.360Z,31
2018-01-02T05:50:32.582Z,31
2018-01-02T05:51:31.765Z,31
2018-01-02T05:52:33.719Z,31
2018-01-02T05:53:35.350Z,31
2018-01-02T05:54:35.229Z,31
2018-01-02T05:55:32.503Z,31
2018-01-02T05:56:32.884Z,31
2018-01-02T05:57:31.916Z,31
2018-01-02T05:58:32.070Z,31
2018-01-02T05:59:30.000Z,31
2018-01-02T06:00:32.019Z,31
2018-01-02T06:01:30.074Z,31
2018-01-02T06:02:31.920Z,31
2018-01-02T06:03:32.595Z,31
2018-01-02T06:04:31.789Z,31
2018-01-02T06:05:31.426Z,31
2018-01-02T06:06:31.493Z,31
2018-01-02T06:07:31.689Z,31
2018-01-02T06:08:31.784Z,31
2018-01-02T06:09:31.587Z,31
2018-01-02T06:10:31.030Z,31
2018-01-02T06:11:32.084Z,31
2018-01-02T06:12:30.101Z,31
2018-01-02T06:13:32.081Z,31
2018-01-02T06:14:32.360Z,31
2018-01-02T06:15:31.010Z,31
2018-01-02T06:16:31.653Z,31
2018-01-02T06:17:31.462Z,31
2018-01-02T06:18:31.317Z,31
2018-01-02T06:19:31.732Z,31
2018-01-02T06:20:31.682Z,31
2018-01-02T06:21:31.548Z,31
2018-01-02T06:22:31.371Z,31
2018-01-02T06:23:31.537Z,31
2018-01-02T06:24:31.438Z,31
2018-01-02T06:25:31.320Z,31
2018-01-02T06:26:31.313Z,31
2018-01-02T06:27:31.132Z,31
2018-01-02T06:28:31.732Z,31
2018-01-02T06:29:31.706Z,31
2018-01-02T06:30:32.976Z,31
2018-01-02T06:31:32.583Z,31
2018-01-02T06:32:32.627Z,31
2018-01-02T06:33:32.951Z,31
2018-01-02T06:34:32.271Z,31
2018-01-02T06:35:32.325Z,31
2018-01-02T06:36:32.693Z,31
2018-01-02T06:37:32.863Z,31
2018-01-02T06:38:32.635Z,31
2018-01-02T06:39:32.545Z,31
2018-01-02T06:40:33.235Z,31
2018-01-02T06:41:32.927Z,31
2018-01-02T06:42:31.881Z,31
2018-01-02T06:43:31.851Z,31
2018-01-02T06:44:31.446Z,31
2018-01-02T06:45:33.078Z,31
2018-01-02T06:46:32.829Z,31
2018-01-02T06:47:31.769Z,31
2018-01-02T06:48:31.555Z,31
2018-01-02T06:49:32.838Z,31
2018-01-02T06:50:32.510Z,31
2018-01-02T06:51:32.085Z,31
2018-01-02T06:52:32.355Z,31
2018-01-02T06:53:32.536Z,31
2018-01-02T06:54:32.789Z,31
2018-01-02T06:55:32.964Z,31
2018-01-02T06:56:32.681Z,31
2018-01-02T06:57:32.840Z,31
2018-01-02T06:58:31.989Z,31
2018-01-02T06:59:32.013Z,31
2018-01-02T07:00:29.986Z,31
2018-01-02T07:01:32.047Z,31
2018-01-02T07:02:31.288Z,31
2018-01-02T07:03:31.266Z,31
2018-01-02T07:04:31.628Z,31
2018-01-02T07:05:31.297Z,31
2018-01-02T07:06:31.416Z,31
2018-01-02T07:07:31.033Z,31
2018-01-02T07:08:31.479Z,31
2018-01-02T07:09:31.453Z,31
2018-01-02T07:10:32.212Z,31
2018-01-02T07:11:31.577Z,31
2018-01-02T07:12:31.445Z,31
2018-01-02T07:13:31.500Z,31
2018-01-02T07:14:31.660Z,31
2018-01-02T07:15:32.042Z,31
2018-01-02T07:16:29.779Z,31
2018-01-02T07:17:31.616Z,31
2018-01-02T07:18:32.698Z,31
2018-01-02T07:19:31.488Z,31
2018-01-02T07:20:31.479Z,31
2018-01-02T07:21:31.766Z,31
2018-01-02T07:22:32.358Z,31
2018-01-02T07:23:32.155Z,31
2018-01-02T07:24:31.291Z,31
2018-01-02T07:25:31.383Z,31
2018-01-02T07:26:31.155Z,31
2018-01-02T07:27:29.911Z,31
2018-01-02T07:28:32.797Z,31
2018-01-02T07:29:32.615Z,31
2018-01-02T07:30:32.238Z,31
2018-01-02T07:31:31.911Z,31
2018-01-02T07:32:31.785Z,31
2018-01-02T07:33:32.053Z,31
2018-01-02T07:34:32.136Z,31
2018-01-02T07:35:32.071Z,31
2018-01-02T07:36:31.928Z,31
2018-01-02T07:37:32.282Z,31
2018-01-02T07:38:32.197Z,31
2018-01-02T07:39:32.089Z,31
2018-01-02T07:40:31.671Z,31
2018-01-02T07:41:31.975Z,31
2018-01-02T07:42:31.885Z,31
2018-01-02T07:43:32.624Z,31
2018-01-02T07:44:32.752Z,31
2018-01-02T07:45:32.176Z,31
2018-01-02T07:46:32.907Z,31
2018-01-02T07:47:31.486Z,31
2018-01-02T07:48:32.572Z,31
2018-01-02T07:49:31.724Z,31
2018-01-02T07:50:31.907Z,31
2018-01-02T07:51:32.064Z,31
2018-01-02T07:52:32.363Z,31
2018-01-02T07:53:33.191Z,31
2018-01-02T07:54:32.347Z,31
2018-01-02T07:55:32.534Z,31
2018-01-02T07:56:32.358Z,31
2018-01-02T07:57:32.661Z,31
2018-01-02T07:58:31.701Z,31
2018-01-02T07:59:31.746Z,31
2018-01-02T08:00:31.447Z,31
2018-01-02T08:01:32.746Z,31
2018-01-02T08:02:32.647Z,31
2018-01-02T08:03:32.482Z,31
2018-01-02T08:04:32.311Z,31
2018-01-02T08:05:31.847Z,31
2018-01-02T08:06:31.863Z,31
2018-01-02T08:07:32.850Z,31
2018-01-02T08:08:31.912Z,31
2018-01-02T08:09:32.452Z,31
2018-01-02T08:10:32.371Z,31
2018-01-02T08:11:32.888Z,31
2018-01-02T08:12:32.040Z,31
2018-01-02T08:13:32.321Z,31
2018-01-02T08:14:32.206Z,31
2018-01-02T08:15:31.638Z,31
2018-01-02T08:16:32.747Z,31
2018-01-02T08:17:33.207Z,31
2018-01-02T08:18:32.074Z,31
2018-01-02T08:19:32.080Z,31
2018-01-02T08:20:32.129Z,31
2018-01-02T08:21:32.139Z,31
2018-01-02T08:22:32.117Z,31
2018-01-02T08:23:32.598Z,31
2018-01-02T08:24:32.944Z,31
2018-01-02T08:25:31.915Z,31
2018-01-02T08:26:32.816Z,31
2018-01-02T08:27:31.706Z,31
2018-01-02T08:28:32.811Z,31
2018-01-02T08:29:32.808Z,31
2018-01-02T08:30:32.765Z,31
2018-01-02T08:31:32.026Z,31
2018-01-02T08:32:31.954Z,31
2018-01-02T08:33:32.448Z,31
2018-01-02T08:34:32.079Z,31
2018-01-02T08:35:32.370Z,31
2018-01-02T08:36:32.493Z,31
2018-01-02T08:37:32.522Z,31
2018-01-02T08:38:32.322Z,31
2018-01-02T08:39:32.497Z,31
2018-01-02T08:40:32.486Z,31
2018-01-02T08:41:32.245Z,31
2018-01-02T08:42:32.173Z,31
2018-01-02T08:43:32.368Z,31
2018-01-02T08:44:32.599Z,31
2018-01-02T08:45:32.681Z,31
2018-01-02T08:46:32.763Z,31
2018-01-02T08:47:31.931Z,31
2018-01-02T08:48:31.934Z,31
2018-01-02T08:49:31.972Z,31
2018-01-02T08:50:32.687Z,31
2018-01-02T08:51:33.439Z,31
2018-01-02T08:52:32.596Z,31
2018-01-02T08:53:32.611Z,31
2018-01-02T08:54:33.340Z,31
2018-01-02T08:55:32.400Z,31
2018-01-02T08:56:32.414Z,31
2018-01-02T08:57:31.987Z,31
2018-01-02T08:58:32.015Z,31
2018-01-02T08:59:31.925Z,31
2018-01-02T09:00:32.014Z,31
2018-01-02T09:01:31.319Z,31
2018-01-02T09:02:31.282Z,31
2018-01-02T09:03:31.291Z,31
2018-01-02T09:04:30.084Z,31
2018-01-02T09:05:31.637Z,31
2018-01-02T09:06:31.575Z,31
2018-01-02T09:07:31.564Z,31
2018-01-02T09:08:31.637Z,31
2018-01-02T09:09:31.965Z,31
2018-01-02T09:10:31.773Z,31
2018-01-02T09:11:31.371Z,31
2018-01-02T09:12:30.137Z,31
2018-01-02T09:13:31.819Z,31
2018-01-02T09:14:31.810Z,31
2018-01-02T09:15:32.594Z,31
2018-01-02T09:16:31.856Z,31
2018-01-02T09:17:32.091Z,31
2018-01-02T09:18:32.235Z,31
2018-01-02T09:19:31.611Z,31
2018-01-02T09:20:31.811Z,31
2018-01-02T09:21:32.633Z,31
2018-01-02T09:22:31.451Z,31
2018-01-02T09:23:31.221Z,31
2018-01-02T09:24:31.326Z,31
2018-01-02T09:25:31.141Z,31
2018-01-02T09:26:30.105Z,31
2018-01-02T09:27:32.177Z,31
2018-01-02T09:28:31.302Z,31
2018-01-02T09:29:31.305Z,31
2018-01-02T09:30:31.342Z,31
2018-01-02T09:31:31.446Z,31
2018-01-02T09:32:31.235Z,31
2018-01-02T09:33:31.862Z,31
2018-01-02T09:34:31.586Z,31
2018-01-02T09:35:31.688Z,31
2018-01-02T09:36:31.813Z,31
2018-01-02T09:37:32.192Z,31
2018-01-02T09:38:31.980Z,31
2018-01-02T09:39:32.606Z,31
2018-01-02T09:40:32.313Z,31
2018-01-02T09:41:32.998Z,31
2018-01-02T09:42:32.017Z,31
2018-01-02T09:43:32.660Z,31
2018-01-02T09:44:31.635Z,31
2018-01-02T09:45:31.578Z,31
2018-01-02T09:46:31.894Z,31
2018-01-02T09:47:32.014Z,31
2018-01-02T09:48:32.141Z,31
2018-01-02T09:49:32.892Z,31
2018-01-02T09:50:31.666Z,31
2018-01-02T09:51:31.873Z,31
2018-01-02T09:52:32.311Z,31
2018-01-02T09:53:32.392Z,31
2018-01-02T09:54:31.402Z,31
2018-01-02T09:55:32.625Z,31
2018-01-02T09:56:31.720Z,31
2018-01-02T09:57:31.673Z,31
2018-01-02T09:58:31.925Z,31
2018-01-02T09:59:32.496Z,31
2018-01-02T10:00:31.192Z,31
2018-01-02T10:01:32.318Z,31
2018-01-02T10:02:30.219Z,31
2018-01-02T10:03:32.381Z,31
2018-01-02T10:04:35.068Z,31
2018-01-02T10:05:32.175Z,31
2018-01-02T10:06:32.950Z,31
2018-01-02T10:07:33.610Z,31
2018-01-02T10:08:34.356Z,31
2018-01-02T10:11:35.515Z,-63
2018-01-02T10:12:32.137Z,-64
2018-01-02T10:13:33.263Z,-61
2018-01-02T10:14:32.493Z,-61
2018-01-02T10:15:32.632Z,-62
2018-01-02T10:16:31.892Z,-68
2018-01-02T10:17:32.071Z,-69
2018-01-02T10:18:32.048Z,-67
2018-01-02T10:19:32.649Z,-63
2018-01-02T10:20:31.476Z,-63
2018-01-02T10:21:32.230Z,-63
2018-01-02T10:22:32.308Z,-63
2018-01-02T10:23:31.918Z,-63
2018-01-02T10:24:32.162Z,-66
2018-01-02T10:25:32.189Z,-66
2018-01-02T10:26:32.133Z,-66
2018-01-02T10:27:33.029Z,-63
2018-01-02T10:28:32.450Z,-63
2018-01-02T10:29:31.667Z,-62
2018-01-02T10:30:32.232Z,-63
2018-01-02T10:31:32.521Z,-67
2018-01-02T10:32:36.566Z,-69
2018-01-02T10:33:32.192Z,-61
2018-01-02T10:34:32.360Z,-65
2018-01-02T10:35:32.478Z,-63
2018-01-02T10:36:33.157Z,-62
2018-01-02T10:37:32.276Z,-66
2018-01-02T10:38:32.379Z,-63
2018-01-02T10:39:32.727Z,-68
2018-01-02T10:40:32.345Z,-62
2018-01-02T10:41:32.356Z,-62
2018-01-02T10:42:32.838Z,-61
2018-01-02T10:43:31.964Z,-62
2018-01-02T10:44:31.778Z,-58
2018-01-02T10:45:31.668Z,-61
2018-01-02T10:46:31.841Z,-63
2018-01-02T10:47:32.432Z,-62
2018-01-02T10:48:32.481Z,-58
2018-01-02T10:49:33.089Z,-62
2018-01-02T10:50:32.354Z,-62
2018-01-02T10:51:31.995Z,-62
2018-01-02T10:52:32.360Z,-59
2018-01-02T10:53:32.438Z,-63
2018-01-02T10:54:32.597Z,-61
2018-01-02T10:55:32.743Z,-66
2018-01-02T10:56:31.757Z,-63
2018-01-02T10:57:32.168Z,-62
2018-01-02T10:58:32.237Z,-61
2018-01-02T10:59:34.353Z,-64
2018-01-02T11:00:32.604Z,-65
2018-01-02T11:01:31.942Z,-61
2018-01-02T11:02:32.346Z,-64
2018-01-02T11:03:31.599Z,-65
2018-01-02T11:04:31.615Z,-61
2018-01-02T11:05:31.942Z,-73
2018-01-02T11:06:32.058Z,-67
2018-01-02T11:07:32.376Z,-62
2018-01-02T11:08:33.113Z,-65
2018-01-02T11:09:32.877Z,-65
2018-01-02T11:10:32.008Z,-65
2018-01-02T11:11:32.336Z,-70
2018-01-02T11:12:31.479Z,-64
2018-01-02T11:13:31.615Z,-66
2018-01-02T11:14:31.808Z,-61
2018-01-02T11:15:31.809Z,-68
2018-01-02T11:16:32.212Z,-68
2018-01-02T11:17:31.231Z,-65
2018-01-02T11:18:31.501Z,-62
2018-01-02T11:19:31.698Z,-64
2018-01-02T11:20:32.014Z,-62
2018-01-02T11:21:31.828Z,-61
2018-01-02T11:22:32.703Z,-63
2018-01-02T11:23:32.003Z,-64
2018-01-02T11:24:32.115Z,-70
2018-01-02T11:25:32.158Z,-61
2018-01-02T11:26:31.959Z,-69
2018-01-02T11:27:32.141Z,-61
2018-01-02T11:28:31.995Z,-69
2018-01-02T11:29:32.146Z,-65
2018-01-02T11:30:32.579Z,-62
2018-01-02T11:31:32.054Z,-70
2018-01-02T11:32:32.236Z,-64
2018-01-02T11:33:31.736Z,-66
2018-01-02T11:34:31.435Z,-61
2018-01-02T11:35:31.721Z,-70
2018-01-02T11:36:31.745Z,-70
2018-01-02T11:37:32.456Z,-70
2018-01-02T11:38:31.873Z,-62
2018-01-02T11:39:31.926Z,-64
2018-01-02T11:40:32.114Z,-66
2018-01-02T11:41:32.191Z,-67
2018-01-02T11:42:32.542Z,-62
2018-01-02T11:43:31.461Z,-65
2018-01-02T11:44:31.620Z,-63
2018-01-02T11:45:31.733Z,-67
2018-01-02T11:46:32.032Z,-65
2018-01-02T11:47:32.194Z,-62
2018-01-02T11:48:32.445Z,-72
2018-01-02T11:49:31.421Z,-65
2018-01-02T11:50:31.171Z,-71
2018-01-02T11:51:32.415Z,-62
2018-01-02T11:52:31.803Z,-64
2018-01-02T11:53:31.849Z,-63
2018-01-02T11:54:31.913Z,-71
2018-01-02T11:55:32.251Z,-71
2018-01-02T11:56:32.135Z,-66
2018-01-02T11:57:32.351Z,-65
2018-01-02T11:58:32.196Z,-63
2018-01-02T11:59:32.320Z,-63
2018-01-02T12:00:31.897Z,-62
2018-01-02T12:01:32.047Z,-62
2018-01-02T12:02:32.353Z,-71
2018-01-02T12:03:33.048Z,-62
2018-01-02T12:04:32.348Z,-70
2018-01-02T12:05:32.574Z,-71
2018-01-02T12:06:31.773Z,-70
2018-01-02T12:07:32.059Z,-63
2018-01-02T12:08:31.748Z,-67
2018-01-02T12:09:31.120Z,-63
2018-01-02T12:10:32.188Z,-63
2018-01-02T12:11:32.793Z,-61
2018-01-02T12:12:32.049Z,-64
2018-01-02T12:13:32.420Z,-72
2018-01-02T12:14:31.639Z,-65
2018-01-02T12:15:31.794Z,-62
2018-01-02T12:16:31.818Z,-65
2018-01-02T12:17:32.059Z,-62
2018-01-02T12:18:32.334Z,-64
2018-01-02T12:19:32.148Z,-61
2018-01-02T12:20:32.390Z,-64
2018-01-02T12:21:32.385Z,-61
2018-01-02T12:22:31.391Z,-66
2018-01-02T12:23:32.219Z,-65
2018-01-02T12:24:33.105Z,-65
2018-01-02T12:25:32.238Z,-62
2018-01-02T12:26:32.587Z,-63
2018-01-02T12:27:31.819Z,-67
2018-01-02T12:28:31.877Z,-67
2018-01-02T12:29:32.083Z,-65
2018-01-02T12:30:31.936Z,-61
2018-01-02T12:31:32.399Z,-61
2018-01-02T12:32:32.462Z,-60
2018-01-02T12:33:31.809Z,-66
2018-01-02T12:34:31.907Z,-64
2018-01-02T12:35:31.862Z,-62
2018-01-02T12:36:32.093Z,-65
2018-01-02T12:37:32.062Z,-64
2018-01-02T12:38:31.792Z,-70
2018-01-02T12:39:33.205Z,-64
2018-01-02T12:40:32.426Z,-61
2018-01-02T12:41:32.058Z,-62
2018-01-02T12:42:32.610Z,-64
2018-01-02T12:43:32.740Z,-69
2018-01-02T12:44:33.110Z,-64
2018-01-02T12:45:32.984Z,-64
2018-01-02T12:46:32.722Z,-61
2018-01-02T12:47:32.864Z,-61
2018-01-02T12:48:31.690Z,-61
2018-01-02T12:49:33.011Z,-69
2018-01-02T12:50:32.389Z,-64
2018-01-02T12:51:32.640Z,-62
2018-01-02T12:52:33.140Z,-66
2018-01-02T12:53:32.717Z,-61
2018-01-02T12:54:33.154Z,-64
2018-01-02T12:55:32.235Z,-63
2018-01-02T12:56:31.409Z,-70
2018-01-02T12:57:32.934Z,-63
2018-01-02T12:58:32.648Z,-67
2018-01-02T12:59:32.619Z,-62
2018-01-02T13:00:32.728Z,-66
2018-01-02T13:01:32.633Z,-70
2018-01-02T13:02:32.740Z,-64
2018-01-02T13:03:33.414Z,-70
2018-01-02T13:04:32.791Z,-62
2018-01-02T13:05:32.210Z,-65
2018-01-02T13:06:32.234Z,-63
2018-01-02T13:07:32.248Z,-61
2018-01-02T13:08:32.806Z,-61
2018-01-02T13:09:31.941Z,-62
2018-01-02T13:10:33.395Z,-71
2018-01-02T13:11:33.391Z,-71
2018-01-02T13:12:33.967Z,-71
2018-01-02T13:13:32.515Z,-62
2018-01-02T13:14:33.468Z,-67
2018-01-02T13:15:34.125Z,-73
2018-01-02T13:16:32.986Z,-67
2018-01-02T13:17:33.037Z,-65
2018-01-02T13:18:33.618Z,-63
2018-01-02T13:19:33.625Z,-67
2018-01-02T13:20:33.395Z,-67
2018-01-02T13:21:33.220Z,-63
2018-01-02T13:22:33.479Z,-71
2018-01-02T13:23:33.676Z,-63
2018-01-02T13:24:33.863Z,-72
2018-01-02T13:25:33.166Z,-66
2018-01-02T13:26:33.089Z,-66
2018-01-02T13:27:32.744Z,-66
2018-01-02T13:28:33.761Z,-71
2018-01-02T13:29:33.642Z,-63
2018-01-02T13:30:34.731Z,-65
2018-01-02T13:31:32.859Z,-63
2018-01-02T13:32:32.979Z,-67
2018-01-02T13:33:33.490Z,-66
2018-01-02T13:34:33.758Z,-64
2018-01-02T13:35:32.950Z,-65
2018-01-02T13:36:33.174Z,-63
2018-01-02T13:37:32.384Z,-65
2018-01-02T13:38:33.584Z,-66
2018-01-02T13:39:32.520Z,-66
2018-01-02T13:40:33.660Z,-71
2018-01-02T13:41:33.131Z,-63
2018-01-02T13:42:33.302Z,-66
2018-01-02T13:43:34.339Z,-66
2018-01-02T13:44:33.160Z,-66
2018-01-02T13:45:33.945Z,-72
2018-01-02T13:46:32.910Z,-67
2018-01-02T13:47:32.854Z,-63
2018-01-02T13:48:33.189Z,-72
2018-01-02T13:49:33.351Z,-60
2018-01-02T13:50:33.458Z,-70
2018-01-02T13:51:33.312Z,-65
2018-01-02T13:52:32.981Z,-65
2018-01-02T13:53:33.227Z,-63
2018-01-02T13:54:32.362Z,-72
2018-01-02T13:55:33.478Z,-62
2018-01-02T13:56:32.758Z,-64
2018-01-02T13:57:32.971Z,-62
2018-01-02T13:58:33.174Z,-70
2018-01-02T13:59:33.422Z,-62
2018-01-02T14:00:33.018Z,-64
2018-01-02T14:01:33.231Z,-65